createdAt,value
2018-06-07T00:04:25.136Z,9.72
2018-06-07T00:10:20.126Z,9.76
2018-06-07T00:16:15.168Z,10.23
2018-06-07T00:22:10.130Z,10.73
2018-06-07T00:28:05.120Z,10.13
2018-06-07T00:34:00.206Z,10.55
2018-06-07T00:39:55.176Z,9.51
2018-06-07T00:45:50.186Z,9.51
2018-06-07T00:51:45.189Z,9.32
2018-06-07T00:57:40.197Z,10.7
2018-06-07T01:03:35.183Z,13.8
2018-06-07T01:09:30.154Z,25.51
2018-06-07T01:15:25.158Z,12.77
2018-06-07T01:21:20.149Z,13.11
2018-06-07T01:27:15.178Z,10.8
2018-06-07T01:33:10.176Z,10.01
2018-06-07T01:39:05.221Z,10.5
2018-06-07T01:45:00.197Z,10.15
2018-06-07T01:50:55.168Z,10.07
2018-06-07T01:56:50.194Z,10.72
2018-06-07T02:02:45.246Z,10.03
2018-06-07T02:08:40.196Z,10.62
2018-06-07T02:14:35.197Z,10.05
2018-06-07T02:20:30.171Z,9.95
2018-06-07T02:26:25.257Z,10.3
2018-06-07T02:32:20.207Z,9.22
2018-06-07T02:38:15.230Z,9.69
2018-06-07T02:44:10.226Z,10.14
2018-06-07T02:50:05.213Z,9.76
2018-06-07T02:56:00.245Z,9.44
2018-06-07T03:01:55.203Z,9.09
2018-06-07T03:07:50.206Z,10.72
2018-06-07T03:13:45.239Z,13.1
2018-06-07T03:19:40.309Z,15.48
2018-06-07T03:25:35.282Z,12.43
2018-06-07T03:31:30.400Z,12.53
2018-06-07T03:37:25.257Z,12.67
2018-06-07T03:43:20.256Z,16.33
2018-06-07T03:49:15.397Z,11.62
2018-06-07T03:55:10.291Z,16.64
2018-06-07T04:01:05.288Z,16.28
2018-06-07T04:07:00.402Z,12.18
2018-06-07T04:12:55.272Z,13.08
2018-06-07T04:18:50.251Z,12.39
2018-06-07T04:24:45.244Z,13.11
2018-06-07T04:30:40.295Z,12.45
2018-06-07T04:36:35.356Z,12.1
2018-06-07T04:42:30.314Z,19.8
2018-06-07T04:48:25.280Z,18.9
2018-06-07T04:54:20.263Z,16.63
2018-06-07T05:00:15.308Z,12.33
2018-06-07T05:06:10.397Z,10.44
2018-06-07T05:12:05.315Z,10.45
2018-06-07T05:18:00.304Z,9.93
2018-06-07T05:23:55.324Z,10.49
2018-06-07T05:29:50.388Z,8.85
2018-06-07T05:35:45.395Z,9.9
2018-06-07T05:41:40.323Z,10.88
2018-06-07T05:47:35.355Z,9.32
2018-06-07T05:53:30.334Z,10.21
2018-06-07T05:59:25.349Z,10.37
2018-06-07T06:05:20.328Z,10.74
2018-06-07T06:11:15.366Z,10.45
2018-06-07T06:17:10.318Z,9.37
2018-06-07T06:23:05.396Z,10.57
2018-06-07T06:29:00.327Z,11.35
2018-06-07T06:34:55.424Z,10.2
2018-06-07T06:40:51.029Z,10.19
2018-06-07T06:46:45.387Z,10.87
2018-06-07T06:53:27.464Z,10.65
2018-06-07T06:58:35.373Z,9.91
2018-06-07T07:04:30.352Z,9.42
2018-06-07T07:10:25.397Z,9.77
2018-06-07T07:16:20.413Z,8.84
2018-06-07T07:22:15.347Z,8.43
2018-06-07T07:28:10.407Z,9.15
2018-06-07T07:34:05.359Z,8.06
2018-06-07T07:40:00.381Z,8.66
2018-06-07T07:45:55.472Z,7.35
2018-06-07T07:51:50.510Z,7.92
2018-06-07T07:57:45.396Z,7.27
2018-06-07T08:03:40.450Z,6.84
2018-06-07T08:09:35.482Z,5.84
2018-06-07T08:15:30.378Z,6.54
2018-06-07T08:21:25.413Z,6.95
2018-06-07T08:27:20.423Z,5.44
2018-06-07T08:33:15.423Z,5.82
2018-06-07T08:39:10.423Z,6.18
2018-06-07T08:45:05.412Z,5.4
2018-06-07T08:51:00.446Z,5.23
2018-06-07T08:56:55.397Z,4.47
2018-06-07T09:02:50.711Z,4.24
2018-06-07T09:08:45.491Z,5.11
2018-06-07T09:14:40.432Z,5.46
2018-06-07T09:20:35.433Z,4.55
2018-06-07T09:26:30.605Z,4.18
2018-06-07T09:32:25.444Z,4.7
2018-06-07T09:38:20.460Z,3.98
2018-06-07T09:44:15.804Z,3.98
2018-06-07T09:50:10.480Z,3.5
2018-06-07T09:56:05.601Z,3.67
2018-06-07T10:02:00.452Z,3.91
2018-06-07T10:07:55.516Z,4.83
2018-06-07T10:13:50.460Z,3.59
2018-06-07T10:19:45.484Z,3.53
2018-06-07T10:25:40.503Z,4.03
2018-06-07T10:31:35.490Z,3.61
2018-06-07T10:37:30.489Z,3.85
2018-06-07T10:43:25.472Z,3.29
2018-06-07T10:49:20.491Z,3.78
2018-06-07T10:55:15.486Z,3.73
2018-06-07T11:01:10.557Z,4.18
2018-06-07T11:07:06.093Z,3.78
2018-06-07T11:13:00.496Z,3.93
2018-06-07T11:18:55.565Z,3.82
2018-06-07T11:24:50.545Z,3.61
2018-06-07T11:30:45.623Z,3.92
2018-06-07T11:36:40.515Z,3.95
2018-06-07T11:42:35.659Z,3.94
2018-06-07T11:48:30.498Z,3.4
2018-06-07T11:54:25.521Z,2.92
2018-06-07T12:00:20.616Z,3.01
2018-06-07T12:06:15.574Z,3.47
2018-06-07T12:12:10.556Z,2.66
2018-06-07T12:18:05.593Z,2.72
2018-06-07T12:24:00.545Z,2.72
2018-06-07T12:29:55.643Z,3.23
2018-06-07T12:35:50.533Z,2.75
2018-06-07T12:41:45.533Z,1.73
2018-06-07T12:47:40.544Z,2.31
2018-06-07T12:53:35.610Z,2.18
2018-06-07T12:59:30.600Z,1.59
2018-06-07T13:05:25.591Z,1.68
2018-06-07T13:11:20.601Z,1.83
2018-06-07T13:17:15.583Z,1.77
2018-06-07T13:23:10.621Z,2.09
2018-06-07T13:29:05.551Z,2.23
2018-06-07T13:35:00.676Z,2.28
2018-06-07T13:40:55.596Z,2.5
2018-06-07T13:46:50.572Z,2.77
2018-06-07T13:52:45.589Z,3.23
2018-06-07T13:58:40.582Z,2.8
2018-06-07T14:04:35.592Z,3
2018-06-07T14:10:30.641Z,3.41
2018-06-07T14:16:25.585Z,4.18
2018-06-07T14:22:20.608Z,3.55
2018-06-07T14:28:15.706Z,3.23
2018-06-07T14:34:10.652Z,3.41
2018-06-07T14:40:06.997Z,2.5
2018-06-07T14:46:00.651Z,2.42
2018-06-07T14:51:55.651Z,2.89
2018-06-07T14:57:50.647Z,3.52
2018-06-07T15:03:46.750Z,3.75
2018-06-07T15:09:40.788Z,3.3
2018-06-07T15:15:36.283Z,5.05
2018-06-07T15:21:30.706Z,4.52
2018-06-07T15:27:25.799Z,4.75
2018-06-07T15:39:15.669Z,5.67
2018-06-07T15:45:11.044Z,5.67
2018-06-07T15:51:05.686Z,5.27
2018-06-07T15:57:00.683Z,4.85
2018-06-07T16:02:55.682Z,4.28
2018-06-07T16:08:50.736Z,4.8
2018-06-07T16:14:45.757Z,4.45
2018-06-07T16:20:40.751Z,5.32
2018-06-07T16:26:35.707Z,5.36
2018-06-07T16:32:30.743Z,5.02
2018-06-07T16:38:25.670Z,3.88
2018-06-07T16:44:20.777Z,4
2018-06-07T16:50:15.957Z,3.77
2018-06-07T16:56:10.707Z,3.84
2018-06-07T17:02:05.750Z,3.56
2018-06-07T17:08:00.695Z,3.49
2018-06-07T17:13:55.687Z,3.23
2018-06-07T17:19:50.697Z,3.47
2018-06-07T17:25:45.740Z,3.08
2018-06-07T17:31:40.704Z,3.54
2018-06-07T17:37:35.703Z,3.53
2018-06-07T17:43:30.761Z,4.01
2018-06-07T17:49:25.753Z,3.99
2018-06-07T17:55:20.787Z,3.82
2018-06-07T18:01:15.754Z,3.87
2018-06-07T18:07:10.800Z,3.65
2018-06-07T18:13:05.746Z,4.06
2018-06-07T18:19:00.858Z,3.91
2018-06-07T18:24:55.797Z,3.8
2018-06-07T18:30:50.837Z,4.19
2018-06-07T18:36:45.818Z,4.16
2018-06-07T18:42:40.775Z,4.68
2018-06-07T18:48:35.811Z,4.8
2018-06-07T18:54:30.779Z,4.21
2018-06-07T19:00:25.895Z,4.51
2018-06-07T19:06:20.878Z,4.36
2018-06-07T19:12:15.804Z,4.08
2018-06-07T19:18:10.775Z,3.9
2018-06-07T19:24:05.806Z,4.69
2018-06-07T19:30:00.853Z,4.24
2018-06-07T19:35:55.935Z,4.13
2018-06-07T19:41:50.840Z,4.85
2018-06-07T19:47:45.883Z,4.08
2018-06-07T19:53:40.803Z,4.32
2018-06-07T19:59:35.787Z,4.61
2018-06-07T20:05:30.871Z,4.48
2018-06-07T20:11:25.802Z,4.4
2018-06-07T20:17:20.844Z,4.92
2018-06-07T20:23:15.821Z,4.5
2018-06-07T20:29:10.803Z,4.8
2018-06-07T20:35:05.851Z,5.47
2018-06-07T20:41:00.867Z,4.17
2018-06-07T20:46:55.872Z,4.67
2018-06-07T20:52:50.933Z,5.37
2018-06-07T20:58:45.842Z,5.03
2018-06-07T21:04:40.829Z,3.98
2018-06-07T21:10:35.838Z,4.85
2018-06-07T21:16:30.867Z,5.78
2018-06-07T21:22:25.852Z,5.33
2018-06-07T21:28:20.840Z,4.86
2018-06-07T21:34:15.881Z,5.59
2018-06-07T21:40:10.926Z,4.87
2018-06-07T21:46:05.851Z,4.58
2018-06-07T21:52:00.943Z,5.02
2018-06-07T21:57:55.890Z,6.24
2018-06-07T22:03:50.880Z,5.45
2018-06-07T22:09:45.889Z,6.8
2018-06-07T22:15:40.885Z,9.74
2018-06-07T22:21:35.995Z,14.67
2018-06-07T22:27:30.900Z,20.91
2018-06-07T22:33:25.940Z,20.46
2018-06-07T22:39:20.972Z,13
2018-06-07T22:45:15.896Z,7
2018-06-07T22:51:10.952Z,6.46
2018-06-07T22:57:05.989Z,6.37
2018-06-07T23:03:01.009Z,5.57
2018-06-07T23:08:55.940Z,5.66
2018-06-07T23:14:50.955Z,6.23
2018-06-07T23:20:45.937Z,5.66
2018-06-07T23:26:40.940Z,6.05
2018-06-07T23:32:35.933Z,5.5
2018-06-07T23:38:30.913Z,6.21
2018-06-07T23:44:25.942Z,6.07
2018-06-07T23:50:20.937Z,5.97
2018-06-07T23:56:15.967Z,6.31
